sensor_id;sensor_type;location;lat;lon;timestamp;P1;durP1;ratioP1;P2;durP2;ratioP2
10009;SDS011;5044;48.652;9.250;2023-06-10T00:00:27;5.07;;;3.80;;
10009;SDS011;5044;48.652;9.250;2023-06-10T00:02:56;4.22;;;3.58;;
10009;SDS011;5044;48.652;9.250;2023-06-10T00:05:25;5.47;;;3.40;;
10009;SDS011;5044;48.652;9.250;2023-06-10T00:07:55;4.95;;;3.65;;
10009;SDS011;5044;48.652;9.250;2023-06-10T00:10:22;4.50;;;3.63;;
10009;SDS011;5044;48.652;9.250;2023-06-10T00:12:50;4.88;;;3.90;;
10009;SDS011;5044;48.652;9.250;2023-06-10T00:15:17;5.13;;;3.97;;
10009;SDS011;5044;48.652;9.250;2023-06-10T00:17:44;5.55;;;4.30;;
10009;SDS011;5044;48.652;9.250;2023-06-10T00:20:11;8.10;;;4.10;;
10009;SDS011;5044;48.652;9.250;2023-06-10T00:22:40;6.32;;;4.43;;
10009;SDS011;5044;48.652;9.250;2023-06-10T00:25:10;4.22;;;3.38;;
10009;SDS011;5044;48.652;9.250;2023-06-10T00:27:37;4.35;;;3.60;;
10009;SDS011;5044;48.652;9.250;2023-06-10T00:30:05;5.05;;;3.78;;
10009;SDS011;5044;48.652;9.250;2023-06-10T00:32:32;6.82;;;4.15;;
10009;SDS011;5044;48.652;9.250;2023-06-10T00:34:59;4.55;;;3.65;;
10009;SDS011;5044;48.652;9.250;2023-06-10T00:37:26;4.35;;;3.83;;
10009;SDS011;5044;48.652;9.250;2023-06-10T00:39:55;3.85;;;3.42;;
10009;SDS011;5044;48.652;9.250;2023-06-10T00:42:22;4.22;;;3.47;;
10009;SDS011;5044;48.652;9.250;2023-06-10T00:44:49;3.70;;;3.25;;
10009;SDS011;5044;48.652;9.250;2023-06-10T00:47:16;5.43;;;4.00;;
10009;SDS011;5044;48.652;9.250;2023-06-10T00:49:43;4.22;;;3.60;;
10009;SDS011;5044;48.652;9.250;2023-06-10T00:52:11;4.70;;;3.97;;
10009;SDS011;5044;48.652;9.250;2023-06-10T00:54:40;5.00;;;3.40;;
10009;SDS011;5044;48.652;9.250;2023-06-10T00:57:09;4.65;;;3.50;;
10009;SDS011;5044;48.652;9.250;2023-06-10T00:59:36;5.05;;;3.65;;
10009;SDS011;5044;48.652;9.250;2023-06-10T01:02:03;9.32;;;4.30;;
10009;SDS011;5044;48.652;9.250;2023-06-10T01:04:30;4.80;;;3.22;;
10009;SDS011;5044;48.652;9.250;2023-06-10T01:07:00;6.35;;;3.65;;
10009;SDS011;5044;48.652;9.250;2023-06-10T01:09:38;5.22;;;3.53;;
10009;SDS011;5044;48.652;9.250;2023-06-10T01:12:15;4.60;;;4.10;;
10009;SDS011;5044;48.652;9.250;2023-06-10T01:14:46;6.28;;;4.63;;
10009;SDS011;5044;48.652;9.250;2023-06-10T01:17:14;6.80;;;3.95;;
10009;SDS011;5044;48.652;9.250;2023-06-10T01:19:43;5.25;;;3.95;;
10009;SDS011;5044;48.652;9.250;2023-06-10T01:22:11;4.20;;;3.15;;
10009;SDS011;5044;48.652;9.250;2023-06-10T01:27:10;3.50;;;3.20;;
10009;SDS011;5044;48.652;9.250;2023-06-10T01:29:40;3.13;;;2.37;;
10009;SDS011;5044;48.652;9.250;2023-06-10T01:32:12;5.28;;;4.10;;
10009;SDS011;5044;48.652;9.250;2023-06-10T01:34:44;5.15;;;3.88;;
10009;SDS011;5044;48.652;9.250;2023-06-10T01:37:15;4.28;;;3.28;;
10009;SDS011;5044;48.652;9.250;2023-06-10T01:39:45;4.57;;;3.95;;
10009;SDS011;5044;48.652;9.250;2023-06-10T01:42:13;5.50;;;3.45;;
10009;SDS011;5044;48.652;9.250;2023-06-10T01:44:41;3.35;;;3.05;;
10009;SDS011;5044;48.652;9.250;2023-06-10T01:47:08;4.30;;;3.90;;
10009;SDS011;5044;48.652;9.250;2023-06-10T01:49:35;4.55;;;3.45;;
10009;SDS011;5044;48.652;9.250;2023-06-10T01:52:02;5.85;;;4.00;;
10009;SDS011;5044;48.652;9.250;2023-06-10T01:54:31;5.95;;;3.55;;
10009;SDS011;5044;48.652;9.250;2023-06-10T01:56:59;4.78;;;3.78;;
10009;SDS011;5044;48.652;9.250;2023-06-10T01:59:27;3.15;;;2.85;;
10009;SDS011;5044;48.652;9.250;2023-06-10T02:01:54;4.38;;;3.35;;
10009;SDS011;5044;48.652;9.250;2023-06-10T02:04:21;3.58;;;3.03;;
10009;SDS011;5044;48.652;9.250;2023-06-10T02:06:48;3.45;;;3.15;;
10009;SDS011;5044;48.652;9.250;2023-06-10T02:09:15;5.47;;;3.70;;
10009;SDS011;5044;48.652;9.250;2023-06-10T02:11:45;3.30;;;2.95;;
10009;SDS011;5044;48.652;9.250;2023-06-10T02:14:11;3.28;;;2.83;;
10009;SDS011;5044;48.652;9.250;2023-06-10T02:16:39;4.55;;;3.33;;
10009;SDS011;5044;48.652;9.250;2023-06-10T02:19:06;4.03;;;3.38;;
10009;SDS011;5044;48.652;9.250;2023-06-10T02:21:33;3.78;;;3.25;;
10009;SDS011;5044;48.652;9.250;2023-06-10T02:24:00;6.78;;;3.80;;
10009;SDS011;5044;48.652;9.250;2023-06-10T02:26:28;3.80;;;3.40;;
10009;SDS011;5044;48.652;9.250;2023-06-10T02:28:56;3.88;;;2.80;;
10009;SDS011;5044;48.652;9.250;2023-06-10T02:31:23;5.28;;;3.13;;
10009;SDS011;5044;48.652;9.250;2023-06-10T02:33:50;4.75;;;3.00;;
10009;SDS011;5044;48.652;9.250;2023-06-10T02:36:17;6.65;;;3.90;;
10009;SDS011;5044;48.652;9.250;2023-06-10T02:38:46;3.63;;;2.85;;
10009;SDS011;5044;48.652;9.250;2023-06-10T02:41:13;4.07;;;3.30;;
10009;SDS011;5044;48.652;9.250;2023-06-10T02:43:40;4.32;;;3.13;;
10009;SDS011;5044;48.652;9.250;2023-06-10T02:46:08;4.88;;;2.97;;
10009;SDS011;5044;48.652;9.250;2023-06-10T02:48:40;4.00;;;3.65;;
10009;SDS011;5044;48.652;9.250;2023-06-10T02:51:09;5.18;;;4.65;;
10009;SDS011;5044;48.652;9.250;2023-06-10T02:53:36;4.30;;;3.90;;
10009;SDS011;5044;48.652;9.250;2023-06-10T02:56:03;3.90;;;3.20;;
10009;SDS011;5044;48.652;9.250;2023-06-10T02:58:30;3.42;;;2.97;;
10009;SDS011;5044;48.652;9.250;2023-06-10T03:00:57;6.75;;;4.43;;
10009;SDS011;5044;48.652;9.250;2023-06-10T03:03:25;6.05;;;4.00;;
10009;SDS011;5044;48.652;9.250;2023-06-10T03:05:53;6.65;;;3.53;;
10009;SDS011;5044;48.652;9.250;2023-06-10T03:08:19;6.93;;;4.55;;
10009;SDS011;5044;48.652;9.250;2023-06-10T03:10:47;5.07;;;3.90;;
10009;SDS011;5044;48.652;9.250;2023-06-10T03:13:14;5.75;;;3.55;;
10009;SDS011;5044;48.652;9.250;2023-06-10T03:15:41;4.88;;;3.10;;
10009;SDS011;5044;48.652;9.250;2023-06-10T03:18:11;5.93;;;3.47;;
10009;SDS011;5044;48.652;9.250;2023-06-10T03:20:40;3.58;;;3.08;;
10009;SDS011;5044;48.652;9.250;2023-06-10T03:23:09;4.25;;;3.65;;
10009;SDS011;5044;48.652;9.250;2023-06-10T03:25:36;4.53;;;3.60;;
10009;SDS011;5044;48.652;9.250;2023-06-10T03:28:03;4.95;;;3.70;;
10009;SDS011;5044;48.652;9.250;2023-06-10T03:30:30;3.95;;;3.20;;
10009;SDS011;5044;48.652;9.250;2023-06-10T03:32:57;4.63;;;4.00;;
10009;SDS011;5044;48.652;9.250;2023-06-10T03:35:25;7.45;;;4.75;;
10009;SDS011;5044;48.652;9.250;2023-06-10T03:37:54;4.57;;;3.35;;
10009;SDS011;5044;48.652;9.250;2023-06-10T03:40:21;8.18;;;4.07;;
10009;SDS011;5044;48.652;9.250;2023-06-10T03:42:48;4.45;;;3.17;;
10009;SDS011;5044;48.652;9.250;2023-06-10T03:45:16;4.03;;;3.63;;
10009;SDS011;5044;48.652;9.250;2023-06-10T03:47:43;4.13;;;3.60;;
10009;SDS011;5044;48.652;9.250;2023-06-10T03:50:10;7.15;;;3.53;;
10009;SDS011;5044;48.652;9.250;2023-06-10T03:52:37;5.57;;;3.97;;
10009;SDS011;5044;48.652;9.250;2023-06-10T03:55:07;5.57;;;4.05;;
10009;SDS011;5044;48.652;9.250;2023-06-10T03:57:36;7.88;;;3.53;;
10009;SDS011;5044;48.652;9.250;2023-06-10T04:00:03;7.05;;;4.05;;
10009;SDS011;5044;48.652;9.250;2023-06-10T04:02:35;5.78;;;3.47;;
10009;SDS011;5044;48.652;9.250;2023-06-10T04:05:02;4.28;;;3.30;;
10009;SDS011;5044;48.652;9.250;2023-06-10T04:07:30;7.65;;;3.33;;
10009;SDS011;5044;48.652;9.250;2023-06-10T04:09:57;3.63;;;2.83;;
10009;SDS011;5044;48.652;9.250;2023-06-10T04:12:25;3.85;;;3.28;;
10009;SDS011;5044;48.652;9.250;2023-06-10T04:14:52;4.70;;;3.22;;
10009;SDS011;5044;48.652;9.250;2023-06-10T04:17:19;3.40;;;3.03;;
10009;SDS011;5044;48.652;9.250;2023-06-10T04:19:46;4.32;;;2.92;;
10009;SDS011;5044;48.652;9.250;2023-06-10T04:22:14;4.22;;;2.95;;
10009;SDS011;5044;48.652;9.250;2023-06-10T04:24:41;5.15;;;3.45;;
10009;SDS011;5044;48.652;9.250;2023-06-10T04:27:07;3.90;;;3.50;;
10009;SDS011;5044;48.652;9.250;2023-06-10T04:29:36;3.83;;;2.97;;
10009;SDS011;5044;48.652;9.250;2023-06-10T04:32:04;3.50;;;3.13;;
10009;SDS011;5044;48.652;9.250;2023-06-10T04:34:32;4.25;;;3.28;;
10009;SDS011;5044;48.652;9.250;2023-06-10T04:36:59;4.80;;;3.38;;
10009;SDS011;5044;48.652;9.250;2023-06-10T04:39:26;3.95;;;3.55;;
10009;SDS011;5044;48.652;9.250;2023-06-10T04:41:53;3.42;;;3.05;;
10009;SDS011;5044;48.652;9.250;2023-06-10T04:44:20;3.65;;;3.20;;
10009;SDS011;5044;48.652;9.250;2023-06-10T04:47:00;4.38;;;3.60;;
10009;SDS011;5044;48.652;9.250;2023-06-10T04:49:27;3.50;;;3.17;;
10009;SDS011;5044;48.652;9.250;2023-06-10T04:51:55;4.95;;;4.30;;
10009;SDS011;5044;48.652;9.250;2023-06-10T04:54:22;5.45;;;3.40;;
10009;SDS011;5044;48.652;9.250;2023-06-10T04:56:50;4.72;;;3.60;;
10009;SDS011;5044;48.652;9.250;2023-06-10T04:59:17;3.70;;;3.17;;
10009;SDS011;5044;48.652;9.250;2023-06-10T05:01:44;3.53;;;2.78;;
10009;SDS011;5044;48.652;9.250;2023-06-10T05:04:12;3.83;;;3.13;;
10009;SDS011;5044;48.652;9.250;2023-06-10T05:06:39;4.32;;;3.28;;
10009;SDS011;5044;48.652;9.250;2023-06-10T05:09:06;4.13;;;2.95;;
10009;SDS011;5044;48.652;9.250;2023-06-10T05:11:33;4.30;;;3.22;;
10009;SDS011;5044;48.652;9.250;2023-06-10T05:14:01;4.63;;;3.30;;
10009;SDS011;5044;48.652;9.250;2023-06-10T05:16:28;5.13;;;3.75;;
10009;SDS011;5044;48.652;9.250;2023-06-10T05:18:55;3.70;;;3.10;;
10009;SDS011;5044;48.652;9.250;2023-06-10T05:21:23;4.28;;;3.30;;
10009;SDS011;5044;48.652;9.250;2023-06-10T05:23:50;4.60;;;3.40;;
10009;SDS011;5044;48.652;9.250;2023-06-10T05:26:17;3.85;;;2.85;;
10009;SDS011;5044;48.652;9.250;2023-06-10T05:28:44;5.28;;;3.35;;
10009;SDS011;5044;48.652;9.250;2023-06-10T05:31:11;4.60;;;3.60;;
10009;SDS011;5044;48.652;9.250;2023-06-10T05:33:38;6.07;;;4.13;;
10009;SDS011;5044;48.652;9.250;2023-06-10T05:36:06;6.40;;;3.83;;
10009;SDS011;5044;48.652;9.250;2023-06-10T05:38:34;6.55;;;4.07;;
10009;SDS011;5044;48.652;9.250;2023-06-10T05:41:01;4.30;;;2.97;;
10009;SDS011;5044;48.652;9.250;2023-06-10T05:43:29;4.65;;;3.67;;
10009;SDS011;5044;48.652;9.250;2023-06-10T05:45:56;4.10;;;3.60;;
10009;SDS011;5044;48.652;9.250;2023-06-10T05:48:23;5.00;;;3.03;;
10009;SDS011;5044;48.652;9.250;2023-06-10T05:50:50;5.72;;;3.42;;
10009;SDS011;5044;48.652;9.250;2023-06-10T05:53:17;4.47;;;3.50;;
10009;SDS011;5044;48.652;9.250;2023-06-10T05:55:46;2.80;;;2.45;;
10009;SDS011;5044;48.652;9.250;2023-06-10T05:58:13;5.78;;;3.90;;
10009;SDS011;5044;48.652;9.250;2023-06-10T06:00:40;3.75;;;3.17;;
10009;SDS011;5044;48.652;9.250;2023-06-10T06:03:08;4.15;;;3.72;;
10009;SDS011;5044;48.652;9.250;2023-06-10T06:05:36;4.20;;;3.70;;
10009;SDS011;5044;48.652;9.250;2023-06-10T06:08:03;7.93;;;4.00;;
10009;SDS011;5044;48.652;9.250;2023-06-10T06:10:31;5.25;;;3.85;;
10009;SDS011;5044;48.652;9.250;2023-06-10T07:15:08;4.30;;;3.22;;
10009;SDS011;5044;48.652;9.250;2023-06-10T07:17:35;3.78;;;3.30;;
10009;SDS011;5044;48.652;9.250;2023-06-10T07:20:02;4.47;;;3.45;;
10009;SDS011;5044;48.652;9.250;2023-06-10T07:22:29;3.85;;;3.45;;
10009;SDS011;5044;48.652;9.250;2023-06-10T07:24:56;3.47;;;3.17;;
10009;SDS011;5044;48.652;9.250;2023-06-10T07:27:23;7.10;;;3.65;;
10009;SDS011;5044;48.652;9.250;2023-06-10T07:29:50;6.93;;;4.22;;
10009;SDS011;5044;48.652;9.250;2023-06-10T07:32:19;4.05;;;3.30;;
10009;SDS011;5044;48.652;9.250;2023-06-10T07:34:47;3.15;;;2.85;;
10009;SDS011;5044;48.652;9.250;2023-06-10T07:37:14;5.28;;;3.60;;
10009;SDS011;5044;48.652;9.250;2023-06-10T07:39:40;3.08;;;2.78;;
10009;SDS011;5044;48.652;9.250;2023-06-10T07:42:08;4.30;;;3.15;;
10009;SDS011;5044;48.652;9.250;2023-06-10T07:44:35;4.18;;;3.42;;
10009;SDS011;5044;48.652;9.250;2023-06-10T07:47:02;3.35;;;2.92;;
10009;SDS011;5044;48.652;9.250;2023-06-10T07:49:30;3.83;;;3.42;;
10009;SDS011;5044;48.652;9.250;2023-06-10T07:51:57;4.70;;;3.30;;
10009;SDS011;5044;48.652;9.250;2023-06-10T07:54:24;5.82;;;3.45;;
10009;SDS011;5044;48.652;9.250;2023-06-10T07:56:52;6.18;;;3.72;;
10009;SDS011;5044;48.652;9.250;2023-06-10T07:59:19;7.85;;;3.28;;
10009;SDS011;5044;48.652;9.250;2023-06-10T08:01:46;4.70;;;3.05;;
10009;SDS011;5044;48.652;9.250;2023-06-10T08:04:15;5.80;;;3.47;;
10009;SDS011;5044;48.652;9.250;2023-06-10T08:06:43;4.07;;;3.10;;
10009;SDS011;5044;48.652;9.250;2023-06-10T08:09:10;3.90;;;3.38;;
10009;SDS011;5044;48.652;9.250;2023-06-10T08:11:36;3.65;;;3.35;;
10009;SDS011;5044;48.652;9.250;2023-06-10T08:14:03;3.92;;;3.47;;
10009;SDS011;5044;48.652;9.250;2023-06-10T08:16:30;3.42;;;2.97;;
10009;SDS011;5044;48.652;9.250;2023-06-10T08:18:57;3.80;;;3.25;;
10009;SDS011;5044;48.652;9.250;2023-06-10T08:21:24;3.65;;;2.92;;
10009;SDS011;5044;48.652;9.250;2023-06-10T08:23:54;3.50;;;2.85;;
10009;SDS011;5044;48.652;9.250;2023-06-10T08:26:21;3.40;;;2.95;;
10009;SDS011;5044;48.652;9.250;2023-06-10T08:28:48;3.65;;;2.97;;
10009;SDS011;5044;48.652;9.250;2023-06-10T08:31:15;5.25;;;3.05;;
10009;SDS011;5044;48.652;9.250;2023-06-10T08:33:42;7.70;;;3.40;;
10009;SDS011;5044;48.652;9.250;2023-06-10T08:36:09;5.68;;;3.05;;
10009;SDS011;5044;48.652;9.250;2023-06-10T08:38:36;4.28;;;3.30;;
10009;SDS011;5044;48.652;9.250;2023-06-10T08:41:04;4.85;;;3.22;;
10009;SDS011;5044;48.652;9.250;2023-06-10T08:43:33;4.50;;;3.30;;
10009;SDS011;5044;48.652;9.250;2023-06-10T08:46:05;4.35;;;2.70;;
10009;SDS011;5044;48.652;9.250;2023-06-10T08:48:35;3.10;;;2.75;;
10009;SDS011;5044;48.652;9.250;2023-06-10T08:51:08;3.17;;;2.88;;
10009;SDS011;5044;48.652;9.250;2023-06-10T08:53:46;3.38;;;3.03;;
10009;SDS011;5044;48.652;9.250;2023-06-10T08:56:29;4.97;;;3.15;;
10009;SDS011;5044;48.652;9.250;2023-06-10T08:58:57;10.73;;;3.33;;
10009;SDS011;5044;48.652;9.250;2023-06-10T09:01:25;3.70;;;2.47;;
10009;SDS011;5044;48.652;9.250;2023-06-10T09:03:54;3.78;;;3.10;;
10009;SDS011;5044;48.652;9.250;2023-06-10T09:08:51;3.28;;;2.97;;
10009;SDS011;5044;48.652;9.250;2023-06-10T09:11:18;3.13;;;2.83;;
10009;SDS011;5044;48.652;9.250;2023-06-10T09:13:46;5.45;;;3.05;;
10009;SDS011;5044;48.652;9.250;2023-06-10T09:16:13;5.40;;;3.03;;
10009;SDS011;5044;48.652;9.250;2023-06-10T09:18:41;3.78;;;2.75;;
10009;SDS011;5044;48.652;9.250;2023-06-10T09:21:09;3.13;;;2.60;;
10009;SDS011;5044;48.652;9.250;2023-06-10T09:23:36;4.72;;;2.60;;
10009;SDS011;5044;48.652;9.250;2023-06-10T09:26:07;5.95;;;2.85;;
10009;SDS011;5044;48.652;9.250;2023-06-10T09:28:35;3.17;;;2.75;;
10009;SDS011;5044;48.652;9.250;2023-06-10T09:31:04;3.20;;;2.63;;
10009;SDS011;5044;48.652;9.250;2023-06-10T09:33:32;4.18;;;2.75;;
10009;SDS011;5044;48.652;9.250;2023-06-10T09:36:00;4.00;;;3.08;;
10009;SDS011;5044;48.652;9.250;2023-06-10T09:38:32;3.00;;;2.40;;
10009;SDS011;5044;48.652;9.250;2023-06-10T09:40:59;2.92;;;2.72;;
10009;SDS011;5044;48.652;9.250;2023-06-10T09:43:38;3.70;;;2.40;;
10009;SDS011;5044;48.652;9.250;2023-06-10T09:46:15;4.97;;;2.60;;
10009;SDS011;5044;48.652;9.250;2023-06-10T09:48:42;4.03;;;2.70;;
10009;SDS011;5044;48.652;9.250;2023-06-10T09:51:10;3.28;;;2.95;;
10009;SDS011;5044;48.652;9.250;2023-06-10T09:53:37;3.85;;;2.80;;
10009;SDS011;5044;48.652;9.250;2023-06-10T09:56:05;4.38;;;2.70;;
10009;SDS011;5044;48.652;9.250;2023-06-10T09:58:35;2.97;;;2.63;;
10009;SDS011;5044;48.652;9.250;2023-06-10T10:01:06;2.95;;;2.75;;
10009;SDS011;5044;48.652;9.250;2023-06-10T10:03:43;2.58;;;2.38;;
10009;SDS011;5044;48.652;9.250;2023-06-10T10:06:12;3.03;;;2.08;;
10009;SDS011;5044;48.652;9.250;2023-06-10T10:08:39;2.95;;;2.30;;
10009;SDS011;5044;48.652;9.250;2023-06-10T10:11:06;2.88;;;2.47;;
10009;SDS011;5044;48.652;9.250;2023-06-10T10:13:33;5.20;;;2.80;;
10009;SDS011;5044;48.652;9.250;2023-06-10T10:16:01;3.03;;;2.72;;
10009;SDS011;5044;48.652;9.250;2023-06-10T10:18:34;2.33;;;2.13;;
10009;SDS011;5044;48.652;9.250;2023-06-10T10:21:07;9.52;;;2.45;;
10009;SDS011;5044;48.652;9.250;2023-06-10T10:23:39;3.33;;;2.40;;
10009;SDS011;5044;48.652;9.250;2023-06-10T10:26:09;2.90;;;2.30;;
10009;SDS011;5044;48.652;9.250;2023-06-10T10:28:38;7.20;;;2.65;;
10009;SDS011;5044;48.652;9.250;2023-06-10T10:31:10;3.20;;;2.38;;
10009;SDS011;5044;48.652;9.250;2023-06-10T10:33:41;6.27;;;2.47;;
10009;SDS011;5044;48.652;9.250;2023-06-10T10:36:16;5.20;;;3.22;;
10009;SDS011;5044;48.652;9.250;2023-06-10T10:38:44;3.65;;;2.45;;
10009;SDS011;5044;48.652;9.250;2023-06-10T10:41:13;11.52;;;2.58;;
10009;SDS011;5044;48.652;9.250;2023-06-10T10:43:41;3.20;;;2.67;;
10009;SDS011;5044;48.652;9.250;2023-06-10T10:46:11;4.72;;;2.80;;
10009;SDS011;5044;48.652;9.250;2023-06-10T10:48:39;2.88;;;2.22;;
10009;SDS011;5044;48.652;9.250;2023-06-10T10:51:07;9.27;;;2.65;;
10009;SDS011;5044;48.652;9.250;2023-06-10T10:53:36;7.07;;;2.78;;
10009;SDS011;5044;48.652;9.250;2023-06-10T10:56:07;4.70;;;3.00;;
10009;SDS011;5044;48.652;9.250;2023-06-10T10:58:38;2.90;;;2.60;;
10009;SDS011;5044;48.652;9.250;2023-06-10T11:01:11;4.45;;;2.53;;
10009;SDS011;5044;48.652;9.250;2023-06-10T11:03:43;3.72;;;3.15;;
10009;SDS011;5044;48.652;9.250;2023-06-10T11:06:12;4.57;;;2.47;;
10009;SDS011;5044;48.652;9.250;2023-06-10T11:08:49;5.03;;;2.53;;
10009;SDS011;5044;48.652;9.250;2023-06-10T11:11:19;2.60;;;2.38;;
10009;SDS011;5044;48.652;9.250;2023-06-10T11:16:52;2.67;;;2.42;;
10009;SDS011;5044;48.652;9.250;2023-06-10T11:22:15;2.60;;;2.40;;
10009;SDS011;5044;48.652;9.250;2023-06-10T11:24:48;3.00;;;2.60;;
10009;SDS011;5044;48.652;9.250;2023-06-10T11:27:17;3.03;;;2.38;;
10009;SDS011;5044;48.652;9.250;2023-06-10T11:32:49;3.05;;;2.13;;
10009;SDS011;5044;48.652;9.250;2023-06-10T11:35:18;2.50;;;2.00;;
10009;SDS011;5044;48.652;9.250;2023-06-10T11:37:46;6.13;;;2.38;;
10009;SDS011;5044;48.652;9.250;2023-06-10T11:40:15;2.25;;;2.05;;
10009;SDS011;5044;48.652;9.250;2023-06-10T11:42:42;3.05;;;2.13;;
10009;SDS011;5044;48.652;9.250;2023-06-10T11:45:14;5.45;;;2.83;;
10009;SDS011;5044;48.652;9.250;2023-06-10T11:47:54;2.90;;;2.38;;
10009;SDS011;5044;48.652;9.250;2023-06-10T11:50:27;2.38;;;2.17;;
10009;SDS011;5044;48.652;9.250;2023-06-10T11:52:55;2.38;;;1.98;;
10009;SDS011;5044;48.652;9.250;2023-06-10T11:55:24;3.35;;;2.83;;
10009;SDS011;5044;48.652;9.250;2023-06-10T11:57:52;2.95;;;2.00;;
10009;SDS011;5044;48.652;9.250;2023-06-10T12:00:22;3.88;;;1.95;;
10009;SDS011;5044;48.652;9.250;2023-06-10T12:02:54;5.32;;;2.13;;
10009;SDS011;5044;48.652;9.250;2023-06-10T12:05:23;6.53;;;2.17;;
10009;SDS011;5044;48.652;9.250;2023-06-10T12:07:49;4.35;;;2.00;;
10009;SDS011;5044;48.652;9.250;2023-06-10T12:10:40;2.13;;;1.92;;
10009;SDS011;5044;48.652;9.250;2023-06-10T12:13:07;2.35;;;1.40;;
10009;SDS011;5044;48.652;9.250;2023-06-10T12:15:35;2.47;;;2.05;;
10009;SDS011;5044;48.652;9.250;2023-06-10T12:18:02;3.50;;;2.38;;
10009;SDS011;5044;48.652;9.250;2023-06-10T12:20:30;3.42;;;2.22;;
10009;SDS011;5044;48.652;9.250;2023-06-10T12:22:58;3.75;;;2.10;;
10009;SDS011;5044;48.652;9.250;2023-06-10T12:25:26;2.00;;;1.80;;
10009;SDS011;5044;48.652;9.250;2023-06-10T12:27:56;2.65;;;1.80;;
10009;SDS011;5044;48.652;9.250;2023-06-10T12:30:23;3.17;;;2.03;;
10009;SDS011;5044;48.652;9.250;2023-06-10T12:32:52;2.78;;;2.00;;
10009;SDS011;5044;48.652;9.250;2023-06-10T12:35:20;3.58;;;2.05;;
10009;SDS011;5044;48.652;9.250;2023-06-10T12:37:58;2.20;;;2.00;;
10009;SDS011;5044;48.652;9.250;2023-06-10T12:40:27;2.35;;;2.15;;
10009;SDS011;5044;48.652;9.250;2023-06-10T12:42:55;3.17;;;2.78;;
10009;SDS011;5044;48.652;9.250;2023-06-10T12:45:28;2.38;;;1.95;;
10009;SDS011;5044;48.652;9.250;2023-06-10T12:48:05;3.40;;;2.20;;
10009;SDS011;5044;48.652;9.250;2023-06-10T12:50:34;4.15;;;2.63;;
10009;SDS011;5044;48.652;9.250;2023-06-10T12:53:02;2.42;;;2.10;;
10009;SDS011;5044;48.652;9.250;2023-06-10T12:55:29;3.10;;;2.33;;
10009;SDS011;5044;48.652;9.250;2023-06-10T12:57:57;2.70;;;2.13;;
10009;SDS011;5044;48.652;9.250;2023-06-10T13:00:25;3.28;;;2.13;;
10009;SDS011;5044;48.652;9.250;2023-06-10T13:02:55;4.80;;;2.58;;
10009;SDS011;5044;48.652;9.250;2023-06-10T13:05:26;2.33;;;1.85;;
10009;SDS011;5044;48.652;9.250;2023-06-10T13:07:52;2.40;;;2.20;;
10009;SDS011;5044;48.652;9.250;2023-06-10T13:10:20;2.78;;;2.38;;
10009;SDS011;5044;48.652;9.250;2023-06-10T13:12:47;3.22;;;2.58;;
10009;SDS011;5044;48.652;9.250;2023-06-10T13:15:16;4.47;;;2.40;;
10009;SDS011;5044;48.652;9.250;2023-06-10T13:17:43;2.42;;;2.22;;
10009;SDS011;5044;48.652;9.250;2023-06-10T13:20:10;3.42;;;2.40;;
10009;SDS011;5044;48.652;9.250;2023-06-10T13:22:37;2.72;;;2.38;;
10009;SDS011;5044;48.652;9.250;2023-06-10T13:25:04;8.10;;;2.42;;
10009;SDS011;5044;48.652;9.250;2023-06-10T13:27:32;4.13;;;2.08;;
10009;SDS011;5044;48.652;9.250;2023-06-10T13:29:59;2.97;;;2.03;;
10009;SDS011;5044;48.652;9.250;2023-06-10T13:32:28;2.72;;;2.15;;
10009;SDS011;5044;48.652;9.250;2023-06-10T13:34:54;6.40;;;2.67;;
10009;SDS011;5044;48.652;9.250;2023-06-10T13:37:22;4.18;;;2.00;;
10009;SDS011;5044;48.652;9.250;2023-06-10T13:39:48;4.57;;;2.10;;
10009;SDS011;5044;48.652;9.250;2023-06-10T13:42:16;3.60;;;1.90;;
10009;SDS011;5044;48.652;9.250;2023-06-10T13:44:43;6.35;;;2.25;;
10009;SDS011;5044;48.652;9.250;2023-06-10T13:47:09;1.80;;;1.70;;
10009;SDS011;5044;48.652;9.250;2023-06-10T13:49:38;3.13;;;1.98;;
10009;SDS011;5044;48.652;9.250;2023-06-10T13:52:06;2.55;;;2.33;;
10009;SDS011;5044;48.652;9.250;2023-06-10T13:54:34;2.15;;;1.95;;
10009;SDS011;5044;48.652;9.250;2023-06-10T13:57:02;2.45;;;1.95;;
10009;SDS011;5044;48.652;9.250;2023-06-10T13:59:29;3.03;;;2.40;;
10009;SDS011;5044;48.652;9.250;2023-06-10T14:01:55;2.95;;;2.25;;
10009;SDS011;5044;48.652;9.250;2023-06-10T14:04:23;2.50;;;2.03;;
10009;SDS011;5044;48.652;9.250;2023-06-10T14:06:51;2.55;;;2.00;;
10009;SDS011;5044;48.652;9.250;2023-06-10T14:09:18;2.28;;;2.08;;
10009;SDS011;5044;48.652;9.250;2023-06-10T14:11:45;4.60;;;2.00;;
10009;SDS011;5044;48.652;9.250;2023-06-10T14:14:12;2.47;;;2.05;;
10009;SDS011;5044;48.652;9.250;2023-06-10T14:16:40;4.20;;;2.33;;
10009;SDS011;5044;48.652;9.250;2023-06-10T14:19:07;4.00;;;2.38;;
10009;SDS011;5044;48.652;9.250;2023-06-10T14:21:33;2.35;;;1.98;;
10009;SDS011;5044;48.652;9.250;2023-06-10T14:24:02;3.00;;;2.20;;
10009;SDS011;5044;48.652;9.250;2023-06-10T14:26:28;2.63;;;1.92;;
10009;SDS011;5044;48.652;9.250;2023-06-10T14:28:57;2.20;;;2.00;;
10009;SDS011;5044;48.652;9.250;2023-06-10T14:31:25;3.58;;;2.42;;
10009;SDS011;5044;48.652;9.250;2023-06-10T14:33:52;2.40;;;2.20;;
10009;SDS011;5044;48.652;9.250;2023-06-10T14:36:19;2.35;;;2.15;;
10009;SDS011;5044;48.652;9.250;2023-06-10T14:38:45;3.13;;;2.30;;
10009;SDS011;5044;48.652;9.250;2023-06-10T14:41:14;3.78;;;2.40;;
10009;SDS011;5044;48.652;9.250;2023-06-10T14:43:41;3.10;;;2.47;;
10009;SDS011;5044;48.652;9.250;2023-06-10T14:46:09;2.00;;;1.80;;
10009;SDS011;5044;48.652;9.250;2023-06-10T14:48:36;3.03;;;2.13;;
10009;SDS011;5044;48.652;9.250;2023-06-10T14:51:04;2.03;;;1.88;;
10009;SDS011;5044;48.652;9.250;2023-06-10T14:53:31;2.75;;;2.33;;
10009;SDS011;5044;48.652;9.250;2023-06-10T14:55:59;2.63;;;2.20;;
10009;SDS011;5044;48.652;9.250;2023-06-10T14:58:28;2.50;;;2.30;;
10009;SDS011;5044;48.652;9.250;2023-06-10T15:00:56;3.25;;;2.25;;
10009;SDS011;5044;48.652;9.250;2023-06-10T15:03:23;6.65;;;2.20;;
10009;SDS011;5044;48.652;9.250;2023-06-10T15:05:50;2.50;;;2.30;;
10009;SDS011;5044;48.652;9.250;2023-06-10T15:08:17;2.58;;;2.38;;
10009;SDS011;5044;48.652;9.250;2023-06-10T15:10:44;2.75;;;2.28;;
10009;SDS011;5044;48.652;9.250;2023-06-10T15:13:13;3.10;;;2.22;;
10009;SDS011;5044;48.652;9.250;2023-06-10T15:15:41;3.45;;;2.22;;
10009;SDS011;5044;48.652;9.250;2023-06-10T15:18:08;2.65;;;2.22;;
10009;SDS011;5044;48.652;9.250;2023-06-10T15:20:35;3.88;;;2.70;;
10009;SDS011;5044;48.652;9.250;2023-06-10T15:23:02;2.10;;;2.00;;
10009;SDS011;5044;48.652;9.250;2023-06-10T15:25:28;2.17;;;1.98;;
10009;SDS011;5044;48.652;9.250;2023-06-10T15:27:55;6.32;;;1.95;;
10009;SDS011;5044;48.652;9.250;2023-06-10T15:30:22;2.17;;;1.80;;
10009;SDS011;5044;48.652;9.250;2023-06-10T15:32:51;1.90;;;1.80;;
10009;SDS011;5044;48.652;9.250;2023-06-10T15:35:18;2.67;;;1.98;;
10009;SDS011;5044;48.652;9.250;2023-06-10T15:37:45;2.53;;;2.33;;
10009;SDS011;5044;48.652;9.250;2023-06-10T15:40:11;2.17;;;1.95;;
10009;SDS011;5044;48.652;9.250;2023-06-10T15:42:38;3.85;;;1.95;;
10009;SDS011;5044;48.652;9.250;2023-06-10T15:45:05;5.60;;;2.10;;
10009;SDS011;5044;48.652;9.250;2023-06-10T15:47:32;7.38;;;2.50;;
10009;SDS011;5044;48.652;9.250;2023-06-10T15:50:01;3.70;;;2.10;;
10009;SDS011;5044;48.652;9.250;2023-06-10T15:52:29;3.15;;;2.63;;
10009;SDS011;5044;48.652;9.250;2023-06-10T15:54:55;4.68;;;2.60;;
10009;SDS011;5044;48.652;9.250;2023-06-10T15:57:22;2.53;;;2.05;;
10009;SDS011;5044;48.652;9.250;2023-06-10T15:59:49;3.15;;;2.00;;
10009;SDS011;5044;48.652;9.250;2023-06-10T16:02:17;2.15;;;1.98;;
10009;SDS011;5044;48.652;9.250;2023-06-10T16:04:45;1.92;;;1.73;;
10009;SDS011;5044;48.652;9.250;2023-06-10T16:07:14;2.28;;;2.08;;
10009;SDS011;5044;48.652;9.250;2023-06-10T16:09:41;2.40;;;2.03;;
10009;SDS011;5044;48.652;9.250;2023-06-10T16:12:08;2.00;;;1.80;;
10009;SDS011;5044;48.652;9.250;2023-06-10T16:14:35;2.42;;;2.00;;
10009;SDS011;5044;48.652;9.250;2023-06-10T16:17:02;2.40;;;2.15;;
10009;SDS011;5044;48.652;9.250;2023-06-10T16:19:30;2.20;;;1.90;;
10009;SDS011;5044;48.652;9.250;2023-06-10T16:21:57;2.67;;;2.13;;